»·PEaware :: SWA89 KABQ-KSAN

SWA89 :: KABQ-KSAN

FLIGHT INFORMATION

Flight Status: Arrived
Operator:
Southwest Airlines
More flights by this operator :: More flights under this callsign
Pilot: Steve F. (26981)
Aircraft: BOEING 737-800
(B738)
More flights by this aircraft type
Origin: KABQ Albuquerque Intl Sunport
United States
Destination: KSAN San Diego Intl-Lindbergh
United States
More flights between these airports :: More routes between these airports
Route: +ABQ3 ABQ ONM SJN J18 HOGGZ LUCKI1
File this flight plan on PilotEdge
Remarks:
Altitude:
(Current/Filed)
38,000ft
Speed:
(Current/Filed)
430kts
Departed: 14-Jan-20 05:34 PM
Arrived: 14-Jan-20 07:22 PM
Distance/Time
Traveled:
545nm/1:47
Distance/Time
To Go:
Arrived

Flight Plot

Page will automatically refresh every two minutes.

Flight plan parsing failed; only flown route is shown


Map Options




Map Legend


Flown Route
Filed Route
Departure Airport
Arrival Airport
Navaid (VOR, NDB)
Fix

Horizontal Profiles

Position Reports

Time Latitude Longitude Heading Altitude Ground
Speed
14-Jan-20 17:03 35.046861 -106.614817 359 5363ft 0kts
14-Jan-20 17:04 35.046861 -106.614817 359 5363ft 0kts
14-Jan-20 17:05 35.046861 -106.614817 359 5363ft 0kts
14-Jan-20 17:06 35.046861 -106.614817 359 5363ft 0kts
14-Jan-20 17:07 35.046861 -106.614817 359 5363ft 0kts
14-Jan-20 17:08 35.046861 -106.614817 359 5363ft 0kts
14-Jan-20 17:09 35.046861 -106.614817 359 5363ft 0kts
14-Jan-20 17:10 35.046861 -106.614817 359 5363ft 0kts
14-Jan-20 17:11 35.046861 -106.614817 359 5363ft 0kts
14-Jan-20 17:12 35.046861 -106.614817 359 5363ft 0kts
14-Jan-20 17:13 35.046861 -106.614817 359 5363ft 0kts
14-Jan-20 17:14 35.046861 -106.614817 359 5363ft 0kts
14-Jan-20 17:15 35.046861 -106.614817 359 5363ft 0kts
14-Jan-20 17:16 35.046861 -106.614817 359 5363ft 0kts
14-Jan-20 17:17 35.046861 -106.614817 359 5363ft 0kts
14-Jan-20 17:18 35.046861 -106.614817 359 5363ft 0kts
14-Jan-20 17:19 35.046861 -106.614817 359 5363ft 0kts
14-Jan-20 17:20 35.046861 -106.614817 359 5363ft 0kts
14-Jan-20 17:21 35.046349 -106.615054 46 5363ft 2kts
14-Jan-20 17:22 35.046130 -106.615764 88 5363ft 0kts
14-Jan-20 17:23 35.046130 -106.615762 88 5363ft 0kts
14-Jan-20 17:24 35.046130 -106.615760 88 5363ft 0kts
14-Jan-20 17:25 35.045988 -106.613868 90 5363ft 11kts
14-Jan-20 17:26 35.045809 -106.608490 89 5363ft 19kts
14-Jan-20 17:27 35.045754 -106.600954 90 5363ft 24kts
14-Jan-20 17:28 35.045845 -106.592209 90 5363ft 26kts
14-Jan-20 17:29 35.045799 -106.582573 89 5363ft 29kts
14-Jan-20 17:30 35.044919 -106.575681 177 5363ft 7kts
14-Jan-20 17:31 35.044777 -106.575676 179 5363ft 0kts
14-Jan-20 17:32 35.044093 -106.577302 270 5363ft 37kts
14-Jan-20 17:33 35.044630 -106.623149 270 6002ft 201kts
14-Jan-20 17:34 35.021458 -106.688727 233 8140ft 237kts
14-Jan-20 17:35 34.978972 -106.759586 232 8974ft 270kts
14-Jan-20 17:36 34.937971 -106.839863 239 9004ft 281kts
14-Jan-20 17:37 34.899694 -106.923092 239 9011ft 280kts
14-Jan-20 17:38 34.837570 -106.964603 176 11801ft 294kts
14-Jan-20 17:39 34.746412 -106.938718 172 13387ft 369kts
14-Jan-20 17:40 34.644552 -106.909133 172 16421ft 383kts
14-Jan-20 17:41 34.539165 -106.878424 173 19188ft 394kts
14-Jan-20 17:42 34.430747 -106.847066 175 21582ft 406kts
14-Jan-20 17:43 34.337818 -106.892671 242 23677ft 373kts
14-Jan-20 17:44 34.337319 -107.016175 275 25834ft 379kts
14-Jan-20 17:45 34.349571 -107.143117 271 27738ft 379kts
14-Jan-20 17:46 34.357216 -107.270274 270 29448ft 379kts
14-Jan-20 17:47 34.363593 -107.395946 268 31388ft 368kts
14-Jan-20 17:48 34.368953 -107.519114 267 32994ft 362kts
14-Jan-20 17:49 34.373851 -107.639031 265 34601ft 354kts
14-Jan-20 17:50 34.378466 -107.756698 265 36137ft 344kts
14-Jan-20 17:51 34.382830 -107.871179 265 37488ft 337kts
14-Jan-20 17:52 34.386985 -107.982936 264 38682ft 329kts
14-Jan-20 17:53 34.390998 -108.093851 264 39440ft 331kts
14-Jan-20 17:54 34.394954 -108.206010 265 39994ft 337kts
14-Jan-20 17:55 34.398887 -108.320486 265 40141ft 339kts
14-Jan-20 17:56 34.402687 -108.434143 265 40143ft 339kts
14-Jan-20 17:57 34.406410 -108.548699 265 40143ft 339kts
14-Jan-20 17:58 34.410023 -108.663121 265 40143ft 340kts
14-Jan-20 18:00 34.413650 -108.777522 265 40148ft 341kts
14-Jan-20 18:01 34.417175 -108.892271 265 40146ft 341kts
14-Jan-20 18:02 34.420370 -109.007152 265 40142ft 341kts
14-Jan-20 18:03 34.421744 -109.122367 256 40140ft 336kts
14-Jan-20 18:04 34.393963 -109.228610 247 40135ft 331kts
14-Jan-20 18:05 34.360383 -109.332366 246 40136ft 331kts
14-Jan-20 18:06 34.325698 -109.435890 246 40141ft 331kts
14-Jan-20 18:07 34.290735 -109.538918 246 40152ft 332kts
14-Jan-20 18:08 34.255706 -109.641771 246 40167ft 331kts
14-Jan-20 18:09 34.220436 -109.744855 245 40185ft 331kts
14-Jan-20 18:10 34.185274 -109.847220 245 40200ft 330kts
14-Jan-20 18:11 34.149911 -109.949884 245 40205ft 330kts
14-Jan-20 18:12 34.115067 -110.052143 245 40198ft 330kts
14-Jan-20 18:13 34.079741 -110.154737 245 40199ft 330kts
14-Jan-20 18:14 34.044245 -110.256891 245 40193ft 331kts
14-Jan-20 18:15 34.008595 -110.359204 245 40188ft 331kts
14-Jan-20 18:16 33.972716 -110.461747 245 40177ft 331kts
14-Jan-20 18:17 33.937184 -110.564014 245 40171ft 332kts
14-Jan-20 18:18 33.901176 -110.666482 245 40165ft 332kts
14-Jan-20 18:19 33.864961 -110.768983 245 40159ft 333kts
14-Jan-20 18:19 33.834603 -110.854756 245 40155ft 334kts
14-Jan-20 18:21 33.792283 -110.974603 245 40148ft 334kts
14-Jan-20 18:21 33.761795 -111.060359 244 40135ft 335kts
14-Jan-20 18:23 33.718677 -111.180863 244 40126ft 337kts
14-Jan-20 18:24 33.681650 -111.284089 244 40114ft 337kts
14-Jan-20 18:24 33.650599 -111.370301 244 40100ft 337kts
14-Jan-20 18:25 33.613318 -111.473465 244 40086ft 337kts
14-Jan-20 18:27 33.569615 -111.594042 244 40077ft 339kts
14-Jan-20 18:27 33.538598 -111.680701 244 40074ft 339kts
14-Jan-20 18:28 33.501046 -111.784249 244 40071ft 338kts
14-Jan-20 18:29 33.463265 -111.887601 244 40070ft 338kts
14-Jan-20 18:30 33.419354 -111.986583 233 40064ft 338kts
14-Jan-20 18:31 33.361045 -112.075793 232 40062ft 341kts
14-Jan-20 18:32 33.301691 -112.164607 232 40065ft 341kts
14-Jan-20 18:33 33.242176 -112.252874 232 40068ft 341kts
14-Jan-20 18:34 33.182686 -112.341141 232 40075ft 341kts
14-Jan-20 18:35 33.123131 -112.429494 232 40080ft 341kts
14-Jan-20 18:36 33.063355 -112.517460 232 40081ft 341kts
14-Jan-20 18:37 33.003474 -112.605190 232 40082ft 342kts
14-Jan-20 18:38 32.957636 -112.702973 254 40082ft 347kts
14-Jan-20 18:39 32.938871 -112.816215 254 40087ft 348kts
14-Jan-20 18:40 32.922175 -112.929772 254 40085ft 349kts
14-Jan-20 18:41 32.906092 -113.043850 255 40083ft 350kts
14-Jan-20 18:42 32.890463 -113.158371 255 40080ft 351kts
14-Jan-20 18:43 32.874700 -113.273126 254 40077ft 351kts
14-Jan-20 18:44 32.858985 -113.387911 254 40072ft 351kts
14-Jan-20 18:45 32.842863 -113.502842 254 40070ft 352kts
14-Jan-20 18:46 32.826572 -113.617596 254 40067ft 353kts
14-Jan-20 18:47 32.810298 -113.732676 254 40063ft 353kts
14-Jan-20 18:48 32.793786 -113.847995 254 40060ft 353kts
14-Jan-20 18:49 32.777499 -113.962834 257 40056ft 353kts
14-Jan-20 18:50 32.775001 -114.081573 263 40055ft 366kts
14-Jan-20 18:51 32.780270 -114.203170 264 40053ft 367kts
14-Jan-20 18:52 32.785069 -114.324511 264 39830ft 370kts
14-Jan-20 18:53 32.805197 -114.446600 277 37947ft 381kts
14-Jan-20 18:54 32.837843 -114.568450 278 36046ft 391kts
14-Jan-20 18:55 32.870654 -114.692570 274 34149ft 392kts
14-Jan-20 18:56 32.876060 -114.820643 264 32318ft 390kts
14-Jan-20 18:57 32.873921 -114.952322 264 30824ft 405kts
14-Jan-20 18:58 32.871335 -115.086301 264 29284ft 404kts
14-Jan-20 18:59 32.868028 -115.219270 265 27680ft 401kts
14-Jan-20 19:00 32.863561 -115.350232 261 26082ft 392kts
14-Jan-20 19:01 32.845742 -115.477793 259 24471ft 390kts
14-Jan-20 19:02 32.825995 -115.601417 258 22769ft 369kts
14-Jan-20 19:03 32.806723 -115.718114 258 21147ft 349kts
14-Jan-20 19:04 32.788343 -115.828934 258 19544ft 335kts
14-Jan-20 19:05 32.777900 -115.937647 265 17854ft 329kts
14-Jan-20 19:06 32.770501 -116.045124 265 16154ft 324kts
14-Jan-20 19:07 32.762463 -116.151455 265 14451ft 321kts
14-Jan-20 19:08 32.754326 -116.256489 265 12755ft 319kts
14-Jan-20 19:09 32.746291 -116.361025 265 11053ft 316kts
14-Jan-20 19:10 32.738492 -116.460151 265 10324ft 286kts
14-Jan-20 19:11 32.730466 -116.551389 264 9495ft 272kts
14-Jan-20 19:12 32.721830 -116.640234 264 8296ft 269kts
14-Jan-20 19:13 32.714666 -116.727255 265 7102ft 258kts
14-Jan-20 19:14 32.708110 -116.809059 262 6079ft 240kts
14-Jan-20 19:15 32.687542 -116.882095 250 4994ft 227kts
14-Jan-20 19:16 32.674455 -116.951751 280 3869ft 212kts
14-Jan-20 19:17 32.690486 -117.012850 287 3143ft 175kts
14-Jan-20 19:18 32.703453 -117.065620 286 2367ft 167kts
14-Jan-20 19:19 32.715522 -117.115211 286 1341ft 151kts
14-Jan-20 19:20 32.727200 -117.163236 285 420ft 151kts
14-Jan-20 19:21 32.735269 -117.196722 286 23ft 27kts
14-Jan-20 19:22 32.734838 -117.198369 163 23ft 0kts
14-Jan-20 19:23 32.734250 -117.196534 105 23ft 16kts
14-Jan-20 19:24 32.733343 -117.196297 197 23ft 0kts

Navigation Log

Ident Type
Flight plan parsing failed, navigation log unavailable